sensor_id;sensor_type;location;lat;lon;timestamp;pressure;altitude;pressure_sealevel;temperature;humidity
40650;BME280;26342;42.826;23.992;2022-11-20T00:01:23;94642.84;;;7.09;100.00
40650;BME280;26342;42.826;23.992;2022-11-20T00:03:48;94638.19;;;6.94;100.00
40650;BME280;26342;42.826;23.992;2022-11-20T00:06:17;94635.91;;;7.03;100.00
40650;BME280;26342;42.826;23.992;2022-11-20T00:08:43;94649.72;;;7.05;100.00
40650;BME280;26342;42.826;23.992;2022-11-20T00:11:11;94662.19;;;7.10;100.00
40650;BME280;26342;42.826;23.992;2022-11-20T00:13:37;94667.09;;;7.23;100.00
40650;BME280;26342;42.826;23.992;2022-11-20T00:16:05;94650.84;;;7.14;100.00
40650;BME280;26342;42.826;23.992;2022-11-20T00:18:32;94667.84;;;7.18;100.00
40650;BME280;26342;42.826;23.992;2022-11-20T00:21:11;94655.63;;;7.17;100.00
40650;BME280;26342;42.826;23.992;2022-11-20T00:23:37;94667.63;;;7.20;100.00
40650;BME280;26342;42.826;23.992;2022-11-20T00:26:07;94660.47;;;7.25;100.00
40650;BME280;26342;42.826;23.992;2022-11-20T00:28:33;94662.66;;;7.28;100.00
40650;BME280;26342;42.826;23.992;2022-11-20T00:31:07;94650.44;;;7.33;100.00
40650;BME280;26342;42.826;23.992;2022-11-20T00:33:32;94642.81;;;7.36;100.00
40650;BME280;26342;42.826;23.992;2022-11-20T00:36:03;94640.16;;;7.41;100.00
40650;BME280;26342;42.826;23.992;2022-11-20T00:38:30;94620.78;;;7.36;100.00
40650;BME280;26342;42.826;23.992;2022-11-20T00:41:03;94637.03;;;7.44;100.00
40650;BME280;26342;42.826;23.992;2022-11-20T00:43:29;94629.00;;;7.39;100.00
40650;BME280;26342;42.826;23.992;2022-11-20T00:48:27;94632.97;;;7.37;100.00
40650;BME280;26342;42.826;23.992;2022-11-20T00:50:54;94635.66;;;7.42;100.00
40650;BME280;26342;42.826;23.992;2022-11-20T00:53:20;94631.97;;;7.43;100.00
40650;BME280;26342;42.826;23.992;2022-11-20T00:55:56;94625.28;;;7.35;100.00
40650;BME280;26342;42.826;23.992;2022-11-20T00:58:22;94613.03;;;7.29;100.00
40650;BME280;26342;42.826;23.992;2022-11-20T01:00:48;94617.47;;;7.23;100.00
40650;BME280;26342;42.826;23.992;2022-11-20T01:03:15;94603.38;;;7.18;100.00
40650;BME280;26342;42.826;23.992;2022-11-20T01:05:41;94610.31;;;7.24;100.00
40650;BME280;26342;42.826;23.992;2022-11-20T01:08:07;94598.38;;;7.21;100.00
40650;BME280;26342;42.826;23.992;2022-11-20T01:10:32;94591.22;;;7.22;100.00
40650;BME280;26342;42.826;23.992;2022-11-20T01:12:57;94603.94;;;7.25;100.00
40650;BME280;26342;42.826;23.992;2022-11-20T01:15:41;94600.00;;;7.27;100.00
40650;BME280;26342;42.826;23.992;2022-11-20T01:18:07;94592.84;;;7.28;100.00
40650;BME280;26342;42.826;23.992;2022-11-20T01:20:36;94603.41;;;7.23;100.00
40650;BME280;26342;42.826;23.992;2022-11-20T01:23:03;94616.41;;;7.24;100.00
40650;BME280;26342;42.826;23.992;2022-11-20T01:25:29;94593.13;;;7.32;100.00
40650;BME280;26342;42.826;23.992;2022-11-20T01:27:54;94597.38;;;7.33;100.00
40650;BME280;26342;42.826;23.992;2022-11-20T01:30:20;94593.50;;;7.45;100.00
40650;BME280;26342;42.826;23.992;2022-11-20T01:32:45;94574.56;;;7.32;100.00
40650;BME280;26342;42.826;23.992;2022-11-20T01:35:11;94573.22;;;7.34;100.00
40650;BME280;26342;42.826;23.992;2022-11-20T01:37:36;94574.38;;;7.43;100.00
40650;BME280;26342;42.826;23.992;2022-11-20T01:40:02;94586.38;;;7.51;100.00
40650;BME280;26342;42.826;23.992;2022-11-20T01:42:27;94576.81;;;7.55;100.00
40650;BME280;26342;42.826;23.992;2022-11-20T01:48:11;94566.25;;;7.60;100.00
40650;BME280;26342;42.826;23.992;2022-11-20T01:50:37;94566.53;;;7.69;100.00
40650;BME280;26342;42.826;23.992;2022-11-20T01:53:08;94551.97;;;7.76;100.00
40650;BME280;26342;42.826;23.992;2022-11-20T01:55:39;94541.69;;;7.90;100.00
40650;BME280;26342;42.826;23.992;2022-11-20T01:58:06;94530.53;;;7.93;100.00
40650;BME280;26342;42.826;23.992;2022-11-20T02:00:32;94528.03;;;8.44;100.00
40650;BME280;26342;42.826;23.992;2022-11-20T02:03:07;94523.78;;;9.25;100.00
40650;BME280;26342;42.826;23.992;2022-11-20T02:05:43;94498.53;;;9.92;100.00
40650;BME280;26342;42.826;23.992;2022-11-20T02:08:10;94494.00;;;10.52;100.00
40650;BME280;26342;42.826;23.992;2022-11-20T02:10:36;94490.41;;;11.30;100.00
40650;BME280;26342;42.826;23.992;2022-11-20T02:13:02;94486.75;;;12.54;100.00
40650;BME280;26342;42.826;23.992;2022-11-20T02:15:46;94477.91;;;12.91;100.00
40650;BME280;26342;42.826;23.992;2022-11-20T02:18:14;94493.59;;;13.30;100.00
40650;BME280;26342;42.826;23.992;2022-11-20T02:20:45;94497.94;;;13.59;100.00
40650;BME280;26342;42.826;23.992;2022-11-20T02:23:21;94507.38;;;13.84;100.00
40650;BME280;26342;42.826;23.992;2022-11-20T02:25:50;94490.59;;;13.92;100.00
40650;BME280;26342;42.826;23.992;2022-11-20T02:28:17;94498.81;;;13.95;100.00
40650;BME280;26342;42.826;23.992;2022-11-20T02:30:43;94482.72;;;14.09;100.00
40650;BME280;26342;42.826;23.992;2022-11-20T02:33:08;94473.66;;;14.19;100.00
40650;BME280;26342;42.826;23.992;2022-11-20T02:38:01;94494.31;;;14.46;100.00
40650;BME280;26342;42.826;23.992;2022-11-20T02:40:28;94488.38;;;14.71;100.00
40650;BME280;26342;42.826;23.992;2022-11-20T02:42:56;94505.91;;;14.91;100.00
40650;BME280;26342;42.826;23.992;2022-11-20T02:45:23;94506.69;;;14.92;100.00
40650;BME280;26342;42.826;23.992;2022-11-20T02:47:49;94504.75;;;15.06;100.00
40650;BME280;26342;42.826;23.992;2022-11-20T02:50:15;94511.94;;;14.97;100.00
40650;BME280;26342;42.826;23.992;2022-11-20T02:52:41;94524.66;;;15.05;100.00
40650;BME280;26342;42.826;23.992;2022-11-20T02:55:06;94518.72;;;14.94;100.00
40650;BME280;26342;42.826;23.992;2022-11-20T02:57:32;94522.44;;;14.85;100.00
40650;BME280;26342;42.826;23.992;2022-11-20T02:59:57;94525.41;;;14.83;100.00
40650;BME280;26342;42.826;23.992;2022-11-20T03:02:23;94552.09;;;14.79;100.00
40650;BME280;26342;42.826;23.992;2022-11-20T03:04:48;94557.31;;;14.62;100.00
40650;BME280;26342;42.826;23.992;2022-11-20T03:07:14;94574.31;;;14.58;100.00
40650;BME280;26342;42.826;23.992;2022-11-20T03:09:39;94571.06;;;14.47;100.00
40650;BME280;26342;42.826;23.992;2022-11-20T03:12:05;94571.22;;;14.37;100.00
40650;BME280;26342;42.826;23.992;2022-11-20T03:14:30;94572.13;;;14.18;100.00
40650;BME280;26342;42.826;23.992;2022-11-20T03:16:56;94586.25;;;14.10;100.00
40650;BME280;26342;42.826;23.992;2022-11-20T03:19:22;94588.84;;;14.15;100.00
40650;BME280;26342;42.826;23.992;2022-11-20T03:21:47;94590.72;;;14.01;100.00
40650;BME280;26342;42.826;23.992;2022-11-20T03:24:13;94602.94;;;14.07;100.00
40650;BME280;26342;42.826;23.992;2022-11-20T03:26:39;94607.13;;;14.27;100.00
40650;BME280;26342;42.826;23.992;2022-11-20T03:29:05;94596.47;;;14.36;100.00
40650;BME280;26342;42.826;23.992;2022-11-20T03:31:33;94606.94;;;14.51;100.00
40650;BME280;26342;42.826;23.992;2022-11-20T03:34:00;94620.28;;;14.56;100.00
40650;BME280;26342;42.826;23.992;2022-11-20T03:36:27;94621.66;;;14.54;100.00
40650;BME280;26342;42.826;23.992;2022-11-20T03:38:54;94625.94;;;14.55;100.00
40650;BME280;26342;42.826;23.992;2022-11-20T03:41:25;94607.16;;;14.55;100.00
40650;BME280;26342;42.826;23.992;2022-11-20T03:43:53;94624.34;;;14.54;100.00
40650;BME280;26342;42.826;23.992;2022-11-20T03:46:19;94636.06;;;14.58;100.00
40650;BME280;26342;42.826;23.992;2022-11-20T03:48:45;94646.19;;;14.61;100.00
40650;BME280;26342;42.826;23.992;2022-11-20T03:51:24;94629.31;;;14.60;100.00
40650;BME280;26342;42.826;23.992;2022-11-20T03:53:52;94630.53;;;14.54;100.00
40650;BME280;26342;42.826;23.992;2022-11-20T03:56:22;94636.47;;;14.51;100.00
40650;BME280;26342;42.826;23.992;2022-11-20T03:58:48;94629.38;;;14.41;100.00
40650;BME280;26342;42.826;23.992;2022-11-20T04:01:19;94637.25;;;14.38;100.00
40650;BME280;26342;42.826;23.992;2022-11-20T04:03:44;94635.25;;;14.43;100.00
40650;BME280;26342;42.826;23.992;2022-11-20T04:08:39;94613.50;;;14.31;100.00
40650;BME280;26342;42.826;23.992;2022-11-20T04:11:17;94616.34;;;14.21;100.00
40650;BME280;26342;42.826;23.992;2022-11-20T04:13:47;94623.50;;;14.12;100.00
40650;BME280;26342;42.826;23.992;2022-11-20T04:16:13;94619.72;;;14.13;100.00
40650;BME280;26342;42.826;23.992;2022-11-20T04:18:38;94611.00;;;14.07;100.00
40650;BME280;26342;42.826;23.992;2022-11-20T04:21:05;94621.31;;;14.14;100.00
40650;BME280;26342;42.826;23.992;2022-11-20T04:23:31;94617.56;;;14.15;100.00
40650;BME280;26342;42.826;23.992;2022-11-20T04:26:10;94610.97;;;14.21;100.00
40650;BME280;26342;42.826;23.992;2022-11-20T04:28:36;94611.69;;;14.27;100.00
40650;BME280;26342;42.826;23.992;2022-11-20T04:31:23;94598.88;;;14.23;100.00
40650;BME280;26342;42.826;23.992;2022-11-20T04:33:49;94606.22;;;14.18;100.00
40650;BME280;26342;42.826;23.992;2022-11-20T04:36:22;94606.72;;;14.06;100.00
40650;BME280;26342;42.826;23.992;2022-11-20T04:38:55;94613.94;;;14.06;100.00
40650;BME280;26342;42.826;23.992;2022-11-20T04:41:22;94620.78;;;13.98;100.00
40650;BME280;26342;42.826;23.992;2022-11-20T04:43:49;94624.97;;;13.90;100.00
40650;BME280;26342;42.826;23.992;2022-11-20T04:46:16;94641.09;;;13.72;100.00
40650;BME280;26342;42.826;23.992;2022-11-20T04:48:41;94647.75;;;13.60;100.00
40650;BME280;26342;42.826;23.992;2022-11-20T04:51:07;94643.13;;;13.47;100.00
40650;BME280;26342;42.826;23.992;2022-11-20T04:53:32;94636.56;;;13.21;100.00
40650;BME280;26342;42.826;23.992;2022-11-20T04:56:02;94644.19;;;13.08;100.00
40650;BME280;26342;42.826;23.992;2022-11-20T04:58:28;94640.00;;;12.83;100.00
40650;BME280;26342;42.826;23.992;2022-11-20T05:00:59;94652.03;;;12.62;100.00
40650;BME280;26342;42.826;23.992;2022-11-20T05:03:25;94667.28;;;12.43;100.00
40650;BME280;26342;42.826;23.992;2022-11-20T05:05:50;94655.31;;;12.35;100.00
40650;BME280;26342;42.826;23.992;2022-11-20T05:08:16;94649.56;;;12.23;100.00
40650;BME280;26342;42.826;23.992;2022-11-20T05:10:41;94651.75;;;12.16;100.00
40650;BME280;26342;42.826;23.992;2022-11-20T05:13:06;94638.50;;;12.06;100.00
40650;BME280;26342;42.826;23.992;2022-11-20T05:15:32;94657.66;;;11.89;100.00
40650;BME280;26342;42.826;23.992;2022-11-20T05:17:57;94671.63;;;11.75;100.00
40650;BME280;26342;42.826;23.992;2022-11-20T05:20:22;94655.72;;;11.60;100.00
40650;BME280;26342;42.826;23.992;2022-11-20T05:22:48;94650.19;;;11.52;100.00
40650;BME280;26342;42.826;23.992;2022-11-20T05:25:13;94661.59;;;11.28;100.00
40650;BME280;26342;42.826;23.992;2022-11-20T05:27:39;94679.06;;;11.15;100.00
40650;BME280;26342;42.826;23.992;2022-11-20T05:30:05;94679.16;;;10.95;100.00
40650;BME280;26342;42.826;23.992;2022-11-20T05:32:31;94693.13;;;10.77;100.00
40650;BME280;26342;42.826;23.992;2022-11-20T05:34:56;94712.13;;;10.65;100.00
40650;BME280;26342;42.826;23.992;2022-11-20T05:37:22;94698.91;;;10.29;100.00
40650;BME280;26342;42.826;23.992;2022-11-20T05:39:47;94692.28;;;10.01;100.00
40650;BME280;26342;42.826;23.992;2022-11-20T05:42:12;94713.88;;;9.85;100.00
40650;BME280;26342;42.826;23.992;2022-11-20T05:45:00;94712.00;;;9.70;100.00
40650;BME280;26342;42.826;23.992;2022-11-20T05:47:32;94733.34;;;9.60;100.00
40650;BME280;26342;42.826;23.992;2022-11-20T05:49:58;94739.44;;;9.45;100.00
40650;BME280;26342;42.826;23.992;2022-11-20T05:52:23;94734.91;;;9.45;100.00
40650;BME280;26342;42.826;23.992;2022-11-20T05:54:48;94744.25;;;9.43;100.00
40650;BME280;26342;42.826;23.992;2022-11-20T05:57:14;94735.72;;;9.36;100.00
40650;BME280;26342;42.826;23.992;2022-11-20T05:59:39;94746.06;;;9.27;100.00
40650;BME280;26342;42.826;23.992;2022-11-20T06:02:05;94726.34;;;9.23;100.00
40650;BME280;26342;42.826;23.992;2022-11-20T06:04:30;94709.31;;;9.19;100.00
40650;BME280;26342;42.826;23.992;2022-11-20T06:06:56;94704.78;;;9.14;100.00
40650;BME280;26342;42.826;23.992;2022-11-20T06:09:21;94709.03;;;9.10;100.00
40650;BME280;26342;42.826;23.992;2022-11-20T06:11:46;94740.94;;;9.00;100.00
40650;BME280;26342;42.826;23.992;2022-11-20T06:14:12;94738.84;;;9.02;100.00
40650;BME280;26342;42.826;23.992;2022-11-20T06:16:37;94747.09;;;9.11;100.00
40650;BME280;26342;42.826;23.992;2022-11-20T06:19:03;94745.25;;;9.11;100.00
40650;BME280;26342;42.826;23.992;2022-11-20T06:21:28;94762.84;;;9.17;100.00
40650;BME280;26342;42.826;23.992;2022-11-20T06:23:53;94775.88;;;9.19;100.00
40650;BME280;26342;42.826;23.992;2022-11-20T06:26:21;94768.44;;;9.31;100.00
40650;BME280;26342;42.826;23.992;2022-11-20T06:28:47;94769.50;;;9.30;100.00
40650;BME280;26342;42.826;23.992;2022-11-20T06:31:15;94782.53;;;9.32;100.00
40650;BME280;26342;42.826;23.992;2022-11-20T06:33:42;94794.25;;;9.20;100.00
40650;BME280;26342;42.826;23.992;2022-11-20T06:36:09;94798.25;;;9.18;100.00
40650;BME280;26342;42.826;23.992;2022-11-20T06:38:35;94790.50;;;9.11;100.00
40650;BME280;26342;42.826;23.992;2022-11-20T06:41:00;94793.13;;;9.06;100.00
40650;BME280;26342;42.826;23.992;2022-11-20T06:43:26;94791.00;;;9.03;100.00
40650;BME280;26342;42.826;23.992;2022-11-20T06:45:54;94795.53;;;9.03;100.00
40650;BME280;26342;42.826;23.992;2022-11-20T06:48:20;94811.41;;;8.87;100.00
40650;BME280;26342;42.826;23.992;2022-11-20T06:50:46;94832.91;;;8.76;100.00
40650;BME280;26342;42.826;23.992;2022-11-20T06:53:11;94831.50;;;8.63;100.00
40650;BME280;26342;42.826;23.992;2022-11-20T06:55:36;94825.91;;;8.59;100.00
40650;BME280;26342;42.826;23.992;2022-11-20T06:58:02;94843.97;;;8.57;100.00
40650;BME280;26342;42.826;23.992;2022-11-20T07:00:27;94856.94;;;8.49;100.00
40650;BME280;26342;42.826;23.992;2022-11-20T07:02:53;94877.13;;;8.45;100.00
40650;BME280;26342;42.826;23.992;2022-11-20T07:05:18;94873.44;;;8.46;100.00
40650;BME280;26342;42.826;23.992;2022-11-20T07:07:43;94863.81;;;8.39;100.00
40650;BME280;26342;42.826;23.992;2022-11-20T07:10:09;94863.25;;;8.37;100.00
40650;BME280;26342;42.826;23.992;2022-11-20T07:12:35;94864.25;;;8.31;100.00
40650;BME280;26342;42.826;23.992;2022-11-20T07:15:00;94867.44;;;8.33;100.00
40650;BME280;26342;42.826;23.992;2022-11-20T07:17:26;94874.69;;;8.38;100.00
40650;BME280;26342;42.826;23.992;2022-11-20T07:19:51;94887.41;;;8.36;100.00
40650;BME280;26342;42.826;23.992;2022-11-20T07:22:17;94881.31;;;8.35;100.00
40650;BME280;26342;42.826;23.992;2022-11-20T07:24:42;94886.66;;;8.41;100.00
40650;BME280;26342;42.826;23.992;2022-11-20T07:27:07;94892.28;;;8.44;100.00
40650;BME280;26342;42.826;23.992;2022-11-20T07:29:33;94890.25;;;8.56;100.00
40650;BME280;26342;42.826;23.992;2022-11-20T07:31:58;94884.13;;;8.61;100.00
40650;BME280;26342;42.826;23.992;2022-11-20T07:34:24;94880.72;;;8.65;100.00
40650;BME280;26342;42.826;23.992;2022-11-20T07:36:49;94877.31;;;8.70;100.00
40650;BME280;26342;42.826;23.992;2022-11-20T07:39:15;94886.38;;;8.74;100.00
40650;BME280;26342;42.826;23.992;2022-11-20T07:41:40;94885.59;;;8.79;100.00
40650;BME280;26342;42.826;23.992;2022-11-20T07:44:06;94901.56;;;8.79;100.00
40650;BME280;26342;42.826;23.992;2022-11-20T07:46:31;94917.53;;;8.79;100.00
40650;BME280;26342;42.826;23.992;2022-11-20T07:48:57;94910.88;;;8.81;100.00
40650;BME280;26342;42.826;23.992;2022-11-20T07:51:22;94900.03;;;8.88;100.00
40650;BME280;26342;42.826;23.992;2022-11-20T07:53:51;94894.47;;;8.94;100.00
40650;BME280;26342;42.826;23.992;2022-11-20T07:56:16;94899.63;;;9.11;100.00
40650;BME280;26342;42.826;23.992;2022-11-20T07:58:41;94894.59;;;9.20;100.00
40650;BME280;26342;42.826;23.992;2022-11-20T08:01:07;94901.84;;;9.35;100.00
40650;BME280;26342;42.826;23.992;2022-11-20T08:03:33;94894.69;;;9.40;100.00
40650;BME280;26342;42.826;23.992;2022-11-20T08:06:00;94890.97;;;9.41;100.00
40650;BME280;26342;42.826;23.992;2022-11-20T08:08:26;94897.63;;;9.44;100.00
40650;BME280;26342;42.826;23.992;2022-11-20T08:10:51;94904.28;;;9.46;100.00
40650;BME280;26342;42.826;23.992;2022-11-20T08:13:17;94909.63;;;9.46;100.00
40650;BME280;26342;42.826;23.992;2022-11-20T08:16:00;94897.66;;;9.49;100.00
40650;BME280;26342;42.826;23.992;2022-11-20T08:18:26;94895.56;;;9.61;100.00
40650;BME280;26342;42.826;23.992;2022-11-20T08:20:51;94902.25;;;9.64;100.00
40650;BME280;26342;42.826;23.992;2022-11-20T08:23:17;94892.16;;;9.86;100.00
40650;BME280;26342;42.826;23.992;2022-11-20T08:25:42;94887.66;;;10.07;100.00
40650;BME280;26342;42.826;23.992;2022-11-20T08:28:09;94889.31;;;10.39;100.00
40650;BME280;26342;42.826;23.992;2022-11-20T08:30:36;94890.38;;;10.53;100.00
40650;BME280;26342;42.826;23.992;2022-11-20T08:33:04;94889.56;;;10.62;100.00
40650;BME280;26342;42.826;23.992;2022-11-20T08:35:37;94894.09;;;10.72;100.00
40650;BME280;26342;42.826;23.992;2022-11-20T08:38:04;94909.31;;;10.72;100.00
40650;BME280;26342;42.826;23.992;2022-11-20T08:40:29;94895.44;;;10.70;100.00
40650;BME280;26342;42.826;23.992;2022-11-20T08:42:55;94887.16;;;10.76;100.00
40650;BME280;26342;42.826;23.992;2022-11-20T08:45:20;94869.81;;;10.69;100.00
40650;BME280;26342;42.826;23.992;2022-11-20T08:47:46;94873.00;;;10.76;100.00
40650;BME280;26342;42.826;23.992;2022-11-20T08:50:13;94875.94;;;10.74;100.00
40650;BME280;26342;42.826;23.992;2022-11-20T08:52:39;94876.22;;;10.68;100.00
40650;BME280;26342;42.826;23.992;2022-11-20T08:55:05;94877.56;;;10.60;100.00
40650;BME280;26342;42.826;23.992;2022-11-20T08:57:32;94869.03;;;10.53;100.00
40650;BME280;26342;42.826;23.992;2022-11-20T08:59:58;94853.28;;;10.56;100.00
40650;BME280;26342;42.826;23.992;2022-11-20T09:02:24;94837.53;;;10.50;100.00
40650;BME280;26342;42.826;23.992;2022-11-20T09:04:49;94831.69;;;10.48;100.00
40650;BME280;26342;42.826;23.992;2022-11-20T09:07:14;94834.63;;;10.51;100.00
40650;BME280;26342;42.826;23.992;2022-11-20T09:09:40;94848.22;;;10.55;100.00
40650;BME280;26342;42.826;23.992;2022-11-20T09:12:05;94846.91;;;10.52;100.00
40650;BME280;26342;42.826;23.992;2022-11-20T09:14:31;94846.06;;;10.57;100.00
40650;BME280;26342;42.826;23.992;2022-11-20T09:16:56;94849.81;;;10.56;100.00
40650;BME280;26342;42.826;23.992;2022-11-20T09:19:23;94850.88;;;10.60;100.00
40650;BME280;26342;42.826;23.992;2022-11-20T09:21:49;94843.66;;;10.66;100.00
40650;BME280;26342;42.826;23.992;2022-11-20T09:24:14;94825.78;;;10.66;100.00
40650;BME280;26342;42.826;23.992;2022-11-20T09:26:40;94836.13;;;10.88;100.00
40650;BME280;26342;42.826;23.992;2022-11-20T09:29:05;94824.63;;;10.98;100.00
40650;BME280;26342;42.826;23.992;2022-11-20T09:31:31;94833.19;;;10.95;100.00
40650;BME280;26342;42.826;23.992;2022-11-20T09:33:57;94842.53;;;10.97;100.00
40650;BME280;26342;42.826;23.992;2022-11-20T09:36:22;94841.72;;;11.02;100.00
40650;BME280;26342;42.826;23.992;2022-11-20T09:38:48;94839.56;;;11.04;100.00
40650;BME280;26342;42.826;23.992;2022-11-20T09:46:57;94828.31;;;11.17;100.00
40650;BME280;26342;42.826;23.992;2022-11-20T09:55:02;94828.31;;;11.22;100.00
40650;BME280;26342;42.826;23.992;2022-11-20T09:57:40;94832.53;;;11.28;100.00
40650;BME280;26342;42.826;23.992;2022-11-20T10:00:10;94845.06;;;11.33;100.00
40650;BME280;26342;42.826;23.992;2022-11-20T10:10:46;94841.09;;;11.30;100.00
40650;BME280;26342;42.826;23.992;2022-11-20T10:29:43;94843.53;;;11.16;100.00
40650;BME280;26342;42.826;23.992;2022-11-20T10:32:15;94837.13;;;11.12;100.00
40650;BME280;26342;42.826;23.992;2022-11-20T10:34:57;94840.88;;;11.11;100.00
40650;BME280;26342;42.826;23.992;2022-11-20T10:37:26;94830.19;;;11.16;100.00
40650;BME280;26342;42.826;23.992;2022-11-20T10:42:36;94830.75;;;11.08;100.00
40650;BME280;26342;42.826;23.992;2022-11-20T10:45:43;94810.47;;;11.02;100.00
40650;BME280;26342;42.826;23.992;2022-11-20T10:48:22;94828.03;;;11.13;100.00
40650;BME280;26342;42.826;23.992;2022-11-20T10:51:12;94831.25;;;11.15;100.00
40650;BME280;26342;42.826;23.992;2022-11-20T10:53:44;94841.38;;;11.24;100.00
40650;BME280;26342;42.826;23.992;2022-11-20T11:01:26;94839.16;;;11.41;100.00
40650;BME280;26342;42.826;23.992;2022-11-20T11:03:53;94833.25;;;11.44;100.00
40650;BME280;26342;42.826;23.992;2022-11-20T11:06:40;94823.34;;;11.55;100.00
40650;BME280;26342;42.826;23.992;2022-11-20T11:09:15;94792.28;;;11.64;100.00
40650;BME280;26342;42.826;23.992;2022-11-20T11:11:41;94783.09;;;11.75;100.00
40650;BME280;26342;42.826;23.992;2022-11-20T11:14:12;94791.13;;;11.80;100.00
40650;BME280;26342;42.826;23.992;2022-11-20T11:16:57;94798.53;;;11.93;100.00
40650;BME280;26342;42.826;23.992;2022-11-20T11:19:23;94795.28;;;11.96;100.00
40650;BME280;26342;42.826;23.992;2022-11-20T11:21:52;94785.09;;;11.98;100.00
40650;BME280;26342;42.826;23.992;2022-11-20T11:24:21;94795.16;;;12.12;100.00
40650;BME280;26342;42.826;23.992;2022-11-20T11:26:53;94792.22;;;12.13;100.00
40650;BME280;26342;42.826;23.992;2022-11-20T11:29:20;94766.72;;;12.21;100.00
40650;BME280;26342;42.826;23.992;2022-11-20T11:31:45;94757.31;;;12.28;100.00
40650;BME280;26342;42.826;23.992;2022-11-20T11:34:15;94763.13;;;12.36;100.00
40650;BME280;26342;42.826;23.992;2022-11-20T11:36:41;94748.78;;;12.26;100.00
40650;BME280;26342;42.826;23.992;2022-11-20T11:39:15;94769.09;;;12.27;100.00
40650;BME280;26342;42.826;23.992;2022-11-20T11:41:42;94775.03;;;12.19;100.00
40650;BME280;26342;42.826;23.992;2022-11-20T11:44:28;94768.41;;;12.12;100.00
40650;BME280;26342;42.826;23.992;2022-11-20T11:47:25;94772.59;;;11.94;100.00
40650;BME280;26342;42.826;23.992;2022-11-20T11:52:28;94771.31;;;11.86;100.00
40650;BME280;26342;42.826;23.992;2022-11-20T11:55:00;94755.47;;;11.95;100.00
40650;BME280;26342;42.826;23.992;2022-11-20T12:00:56;94743.59;;;12.06;100.00
40650;BME280;26342;42.826;23.992;2022-11-20T12:03:33;94756.75;;;12.02;100.00
40650;BME280;26342;42.826;23.992;2022-11-20T12:06:10;94774.88;;;12.06;100.00
40650;BME280;26342;42.826;23.992;2022-11-20T12:11:23;94791.63;;;11.87;100.00
40650;BME280;26342;42.826;23.992;2022-11-20T12:16:18;94824.41;;;11.98;100.00
40650;BME280;26342;42.826;23.992;2022-11-20T12:18:50;94838.94;;;11.87;100.00
40650;BME280;26342;42.826;23.992;2022-11-20T12:21:34;94866.97;;;11.89;100.00
40650;BME280;26342;42.826;23.992;2022-11-20T12:29:45;94847.59;;;11.63;100.00
40650;BME280;26342;42.826;23.992;2022-11-20T12:43:30;94834.44;;;11.77;100.00
40650;BME280;26342;42.826;23.992;2022-11-20T12:52:20;94819.44;;;11.81;100.00
40650;BME280;26342;42.826;23.992;2022-11-20T12:54:55;94808.81;;;11.71;100.00
40650;BME280;26342;42.826;23.992;2022-11-20T13:00:20;94798.88;;;11.82;100.00
40650;BME280;26342;42.826;23.992;2022-11-20T13:06:18;94781.72;;;11.88;100.00
40650;BME280;26342;42.826;23.992;2022-11-20T13:08:56;94790.22;;;11.95;100.00
40650;BME280;26342;42.826;23.992;2022-11-20T13:19:12;94803.22;;;12.07;100.00
40650;BME280;26342;42.826;23.992;2022-11-20T13:21:43;94811.72;;;12.14;100.00
40650;BME280;26342;42.826;23.992;2022-11-20T13:29:34;94759.75;;;11.91;100.00
40650;BME280;26342;42.826;23.992;2022-11-20T13:32:03;94767.28;;;11.89;100.00
40650;BME280;26342;42.826;23.992;2022-11-20T13:34:30;94751.50;;;11.87;100.00
40650;BME280;26342;42.826;23.992;2022-11-20T13:36:57;94744.19;;;11.98;100.00
40650;BME280;26342;42.826;23.992;2022-11-20T13:41:57;94728.91;;;12.04;100.00
40650;BME280;26342;42.826;23.992;2022-11-20T13:44:39;94713.19;;;11.97;100.00
40650;BME280;26342;42.826;23.992;2022-11-20T13:47:36;94696.06;;;11.98;100.00
40650;BME280;26342;42.826;23.992;2022-11-20T13:50:03;94678.75;;;11.90;100.00
40650;BME280;26342;42.826;23.992;2022-11-20T14:00:18;94706.63;;;11.79;100.00
40650;BME280;26342;42.826;23.992;2022-11-20T14:02:59;94709.06;;;11.75;100.00
40650;BME280;26342;42.826;23.992;2022-11-20T14:05:27;94679.19;;;11.68;100.00
40650;BME280;26342;42.826;23.992;2022-11-20T14:07:53;94676.47;;;11.73;100.00
40650;BME280;26342;42.826;23.992;2022-11-20T14:10:27;94688.72;;;11.80;100.00
40650;BME280;26342;42.826;23.992;2022-11-20T14:12:53;94696.47;;;11.86;100.00
40650;BME280;26342;42.826;23.992;2022-11-20T14:15:33;94711.34;;;11.92;100.00
40650;BME280;26342;42.826;23.992;2022-11-20T14:18:10;94704.16;;;11.93;100.00
40650;BME280;26342;42.826;23.992;2022-11-20T14:20:38;94720.53;;;11.81;100.00
40650;BME280;26342;42.826;23.992;2022-11-20T14:23:04;94727.25;;;11.73;100.00
40650;BME280;26342;42.826;23.992;2022-11-20T14:25:30;94722.47;;;11.70;100.00
40650;BME280;26342;42.826;23.992;2022-11-20T14:28:01;94710.44;;;11.73;100.00
40650;BME280;26342;42.826;23.992;2022-11-20T14:30:30;94716.06;;;11.71;100.00
40650;BME280;26342;42.826;23.992;2022-11-20T14:33:03;94724.34;;;11.70;100.00
40650;BME280;26342;42.826;23.992;2022-11-20T14:35:33;94723.50;;;11.74;100.00
40650;BME280;26342;42.826;23.992;2022-11-20T14:38:01;94726.97;;;11.80;100.00
40650;BME280;26342;42.826;23.992;2022-11-20T14:40:32;94738.72;;;11.79;100.00
40650;BME280;26342;42.826;23.992;2022-11-20T14:43:01;94740.59;;;11.79;100.00
40650;BME280;26342;42.826;23.992;2022-11-20T14:45:27;94746.16;;;11.87;100.00
40650;BME280;26342;42.826;23.992;2022-11-20T14:47:57;94743.25;;;11.84;100.00